Time;durP1;ratioP1;P1;durP2;ratioP2;P2;SDS_P1;SDS_P2;PMS_P1;PMS_P2;Temp;Humidity;BMP_temperature;BMP_pressure;BME280_temperature;BME280_humidity;BME280_pressure;Samples;Min_cycle;Max_cycle;Signal;HPM_P1;HPM_P2
2023/05/19 00:01:06;;;;;;;12.10;4.53;;;;;12.30;96887.00;;;;8297223;28;20238;-68
2023/05/19 00:05:13;;;;;;;10.63;4.03;;;;;12.30;96884.00;;;;8286204;28;20318;-67
2023/05/19 00:09:18;;;;;;;11.43;3.58;;;;;12.20;96878.00;;;;8267584;28;20316;-67
2023/05/19 00:13:23;;;;;;;8.75;4.10;;;;;12.20;96881.00;;;;8288332;28;20208;-66
2023/05/19 00:17:27;;;;;;;10.50;3.95;;;;;12.20;96879.00;;;;8294688;28;20215;-67
2023/05/19 00:21:31;;;;;;;15.40;4.75;;;;;12.20;96875.00;;;;8291428;28;20712;-67
2023/05/19 00:25:36;;;;;;;11.65;4.00;;;;;12.20;96868.00;;;;8290175;28;20224;-68
2023/05/19 00:29:40;;;;;;;7.82;3.85;;;;;12.10;96858.00;;;;8285939;28;20256;-67
2023/05/19 00:33:43;;;;;;;11.98;3.90;;;;;12.10;96861.00;;;;8287674;28;20262;-67
2023/05/19 00:37:48;;;;;;;8.63;3.75;;;;;12.00;96864.00;;;;8280723;28;20282;-67
2023/05/19 00:41:53;;;;;;;9.98;4.22;;;;;12.00;96855.00;;;;8284700;28;20674;-66
2023/05/19 00:45:56;;;;;;;9.60;4.00;;;;;12.00;96855.00;;;;8285815;28;20205;-67
2023/05/19 00:50:02;;;;;;;20.60;5.57;;;;;11.90;96855.00;;;;8285098;28;20243;-67
2023/05/19 00:54:10;;;;;;;11.88;3.90;;;;;11.80;96850.00;;;;8282009;28;20193;-66
2023/05/19 00:58:16;;;;;;;10.77;4.18;;;;;11.80;96844.00;;;;8276116;28;20195;-66
2023/05/19 01:02:20;;;;;;;14.18;3.95;;;;;11.70;96837.00;;;;8284496;28;20347;-66
2023/05/19 01:06:24;;;;;;;15.13;4.13;;;;;11.60;96840.00;;;;8283197;28;20533;-67
2023/05/19 01:10:29;;;;;;;8.52;4.07;;;;;11.50;96837.00;;;;8282155;28;20245;-67
2023/05/19 01:14:36;;;;;;;5.95;3.40;;;;;11.40;96843.00;;;;8286633;28;20293;-66
2023/05/19 01:18:54;;;;;;;9.48;4.57;;;;;11.30;96834.00;;;;8283645;28;20691;-66
2023/05/19 01:23:19;;;;;;;11.65;4.00;;;;;11.20;96835.00;;;;8286405;28;20264;-67
2023/05/19 01:27:52;;;;;;;15.05;3.88;;;;;11.10;96846.00;;;;8289284;28;20353;-67
2023/05/19 01:32:06;;;;;;;12.13;3.97;;;;;11.00;96840.00;;;;8279188;28;20938;-67
2023/05/19 01:36:22;;;;;;;5.05;3.58;;;;;10.90;96835.00;;;;8281672;28;20218;-68
2023/05/19 01:40:26;;;;;;;12.18;3.65;;;;;10.80;96830.00;;;;8285486;28;20334;-67
2023/05/19 01:44:30;;;;;;;16.67;4.72;;;;;10.80;96839.00;;;;8287827;28;20205;-67
2023/05/19 01:48:38;;;;;;;11.30;3.72;;;;;10.70;96832.00;;;;8282917;28;20631;-67
2023/05/19 01:52:44;;;;;;;9.55;3.80;;;;;10.60;96833.00;;;;8284396;28;20236;-66
2023/05/19 01:56:58;;;;;;;7.70;3.85;;;;;10.60;96828.00;;;;8286467;28;20205;-67
2023/05/19 02:01:09;;;;;;;5.32;3.25;;;;;10.50;96836.00;;;;8290308;28;20309;-67
2023/05/19 02:05:28;;;;;;;6.07;3.35;;;;;10.40;96828.00;;;;8286557;28;20230;-66
2023/05/19 02:09:39;;;;;;;8.35;3.50;;;;;10.40;96825.00;;;;8281369;28;20559;-67
2023/05/19 02:13:50;;;;;;;9.80;3.80;;;;;10.30;96819.00;;;;8289295;28;20296;-67
2023/05/19 02:17:56;;;;;;;10.32;3.60;;;;;10.20;96815.00;;;;8278223;28;20727;-67
2023/05/19 02:22:04;;;;;;;7.50;3.42;;;;;10.20;96811.00;;;;8286156;28;20292;-67
2023/05/19 02:26:10;;;;;;;10.55;3.40;;;;;10.10;96813.00;;;;8287103;28;20198;-67
2023/05/19 02:30:14;;;;;;;13.53;4.10;;;;;10.10;96817.00;;;;8275256;28;20289;-67
2023/05/19 02:34:17;;;;;;;9.68;3.17;;;;;10.10;96818.00;;;;8283475;28;20293;-67
2023/05/19 02:38:23;;;;;;;10.05;3.30;;;;;10.20;96812.00;;;;8286415;28;20201;-66
2023/05/19 02:42:34;;;;;;;9.50;3.92;;;;;10.20;96809.00;;;;8282963;28;20263;-67
2023/05/19 02:46:38;;;;;;;9.85;3.67;;;;;10.30;96810.00;;;;8288871;28;20209;-66
2023/05/19 02:50:42;;;;;;;8.02;3.90;;;;;10.30;96809.00;;;;8284519;28;20210;-67
2023/05/19 02:54:50;;;;;;;12.13;3.55;;;;;10.30;96806.00;;;;8283312;28;20351;-67
2023/05/19 02:58:53;;;;;;;8.38;3.72;;;;;10.40;96805.00;;;;8274500;28;20195;-66
2023/05/19 03:03:01;;;;;;;10.07;3.67;;;;;10.40;96802.00;;;;8286441;22;20483;-68
2023/05/19 03:07:06;;;;;;;8.10;3.40;;;;;10.40;96802.00;;;;8254024;28;20811;-67
2023/05/19 03:11:10;;;;;;;8.25;3.10;;;;;10.50;96803.00;;;;8252258;28;20279;-66
2023/05/19 03:15:13;;;;;;;15.50;3.88;;;;;10.50;96797.00;;;;8260468;28;20229;-66
2023/05/19 03:19:17;;;;;;;7.82;3.20;;;;;10.50;96802.00;;;;8260392;28;20196;-66
2023/05/19 03:23:21;;;;;;;12.38;3.80;;;;;10.50;96804.00;;;;8262636;28;20307;-67
2023/05/19 03:27:26;;;;;;;11.07;3.85;;;;;10.60;96802.00;;;;8251954;28;20234;-67
2023/05/19 03:31:29;;;;;;;7.70;3.47;;;;;10.60;96814.00;;;;8263019;28;20620;-67
2023/05/19 03:35:32;;;;;;;7.65;3.00;;;;;10.70;96808.00;;;;8245740;28;20284;-66
2023/05/19 03:39:36;;;;;;;6.47;3.17;;;;;10.70;96816.00;;;;8256341;28;20204;-65
2023/05/19 03:43:40;;;;;;;8.15;3.20;;;;;10.80;96807.00;;;;8261084;28;20345;-66
2023/05/19 03:47:47;;;;;;;8.93;2.95;;;;;10.80;96815.00;;;;8265653;28;20206;-66
2023/05/19 03:51:53;;;;;;;5.90;3.47;;;;;10.90;96820.00;;;;8254594;28;20278;-68
2023/05/19 03:55:59;;;;;;;6.97;3.45;;;;;10.90;96821.00;;;;8252234;28;20209;-68
2023/05/19 04:00:05;;;;;;;7.53;2.97;;;;;11.00;96823.00;;;;8255784;28;20195;-66
2023/05/19 04:04:09;;;;;;;7.50;3.45;;;;;11.00;96817.00;;;;8237076;28;20223;-66
2023/05/19 04:08:15;;;;;;;10.98;3.15;;;;;11.00;96821.00;;;;8229663;28;20775;-66
2023/05/19 04:12:23;;;;;;;6.80;2.95;;;;;11.00;96827.00;;;;8245415;28;20686;-67
2023/05/19 04:16:29;;;;;;;10.77;3.17;;;;;11.00;96822.00;;;;8230971;28;20200;-66
2023/05/19 04:20:32;;;;;;;8.65;3.28;;;;;11.00;96821.00;;;;8246960;28;20199;-66
2023/05/19 04:24:50;;;;;;;9.75;3.22;;;;;11.00;96821.00;;;;8245331;28;20206;-66
2023/05/19 04:29:03;;;;;;;9.48;3.40;;;;;11.10;96815.00;;;;8241709;28;20196;-66
2023/05/19 04:33:08;;;;;;;11.15;2.90;;;;;11.10;96811.00;;;;8237100;28;20881;-66
2023/05/19 04:37:11;;;;;;;7.85;3.50;;;;;11.20;96820.00;;;;8237278;28;20285;-66
2023/05/19 04:41:15;;;;;;;9.80;3.30;;;;;11.30;96826.00;;;;8234872;28;20317;-66
2023/05/19 04:45:18;;;;;;;6.70;3.40;;;;;11.40;96819.00;;;;8244605;28;20211;-67
2023/05/19 04:49:27;;;;;;;9.90;3.53;;;;;11.50;96823.00;;;;8242119;28;20202;-67
2023/05/19 04:53:39;;;;;;;9.93;2.97;;;;;11.50;96827.00;;;;8236445;28;20239;-66
2023/05/19 04:57:42;;;;;;;8.50;3.78;;;;;11.60;96815.00;;;;8244923;28;20201;-66
2023/05/19 05:01:45;;;;;;;7.40;3.25;;;;;11.60;96821.00;;;;8253677;28;20941;-66
2023/05/19 05:05:50;;;;;;;4.20;2.85;;;;;11.70;96823.00;;;;8239039;28;20576;-66
2023/05/19 05:09:53;;;;;;;6.97;3.03;;;;;11.80;96820.00;;;;8244851;28;20253;-67
2023/05/19 05:13:57;;;;;;;9.13;3.20;;;;;11.90;96821.00;;;;8252506;28;20206;-67
2023/05/19 05:18:01;;;;;;;8.05;3.35;;;;;12.00;96812.00;;;;8252846;28;20297;-67
2023/05/19 05:22:06;;;;;;;7.10;4.07;;;;;12.20;96806.00;;;;8249447;28;20229;-65
2023/05/19 05:26:16;;;;;;;8.13;3.45;;;;;12.30;96804.00;;;;8251441;28;20892;-67
2023/05/19 05:30:20;;;;;;;8.90;3.42;;;;;12.50;96812.00;;;;8251145;28;20212;-66
2023/05/19 05:34:26;;;;;;;6.82;3.70;;;;;12.80;96807.00;;;;8252975;28;20658;-67
2023/05/19 05:38:33;;;;;;;10.27;3.80;;;;;12.90;96797.00;;;;8248177;28;21158;-67
2023/05/19 05:42:45;;;;;;;10.13;3.92;;;;;13.00;96807.00;;;;8240699;28;20280;-67
2023/05/19 05:46:57;;;;;;;10.25;3.42;;;;;13.10;96807.00;;;;8238564;28;20205;-66
2023/05/19 05:51:02;;;;;;;7.30;3.50;;;;;13.20;96809.00;;;;8242773;28;20656;-67
2023/05/19 05:55:11;;;;;;;9.75;3.83;;;;;13.20;96812.00;;;;8241594;28;20722;-66
2023/05/19 05:59:15;;;;;;;8.35;3.33;;;;;13.30;96807.00;;;;8242210;28;20816;-67
2023/05/19 06:03:22;;;;;;;6.30;3.25;;;;;13.60;96818.00;;;;8236222;28;20326;-67
2023/05/19 06:07:36;;;;;;;7.03;3.60;;;;;13.80;96815.00;;;;8240244;28;20344;-68
2023/05/19 06:11:40;;;;;;;10.55;3.70;;;;;13.90;96803.00;;;;8246185;28;20214;-66
2023/05/19 06:15:44;;;;;;;11.50;3.58;;;;;14.10;96805.00;;;;8243280;28;20199;-67
2023/05/19 06:19:48;;;;;;;7.25;3.40;;;;;14.20;96797.00;;;;8249233;28;20281;-67
2023/05/19 06:23:52;;;;;;;10.18;3.63;;;;;14.30;96795.00;;;;8250911;28;20233;-66
2023/05/19 06:27:57;;;;;;;6.80;3.17;;;;;14.30;96794.00;;;;8240795;28;20237;-67
2023/05/19 06:32:00;;;;;;;6.70;3.88;;;;;14.60;96805.00;;;;8234508;28;20195;-67
2023/05/19 06:36:07;;;;;;;7.90;3.70;;;;;14.90;96800.00;;;;8241908;28;20203;-66
2023/05/19 06:40:12;;;;;;;20.15;5.40;;;;;15.20;96804.00;;;;8244105;28;20384;-66
2023/05/19 06:44:16;;;;;;;12.15;3.33;;;;;15.40;96818.00;;;;8240566;28;20237;-66
2023/05/19 06:48:22;;;;;;;10.40;3.38;;;;;15.40;96816.00;;;;8243015;28;20203;-66
2023/05/19 06:52:27;;;;;;;9.90;3.63;;;;;15.60;96808.00;;;;8241775;28;20303;-67
2023/05/19 06:56:30;;;;;;;5.93;3.78;;;;;15.80;96805.00;;;;8244490;28;20242;-67
2023/05/19 07:00:35;;;;;;;9.38;3.22;;;;;15.90;96799.00;;;;8248033;28;20708;-66
2023/05/19 07:04:39;;;;;;;14.73;3.95;;;;;15.90;96801.00;;;;8249933;28;20258;-66
2023/05/19 07:08:43;;;;;;;8.50;3.47;;;;;16.40;96806.00;;;;8242108;28;20198;-66
2023/05/19 07:12:49;;;;;;;7.63;3.58;;;;;16.80;96795.00;;;;8235784;28;20218;-67
2023/05/19 07:16:53;;;;;;;9.02;3.38;;;;;16.70;96794.00;;;;8232886;28;20285;-65
2023/05/19 07:20:58;;;;;;;7.50;3.42;;;;;16.80;96798.00;;;;8238074;28;20207;-66
2023/05/19 07:25:03;;;;;;;5.30;3.25;;;;;16.70;96798.00;;;;8238452;28;20267;-67
2023/05/19 07:29:06;;;;;;;12.55;3.47;;;;;16.90;96789.00;;;;8237987;28;20689;-67
2023/05/19 07:33:11;;;;;;;7.75;3.15;;;;;17.20;96782.00;;;;8236466;28;20277;-66
2023/05/19 07:37:17;;;;;;;7.78;3.00;;;;;17.60;96789.00;;;;8240461;28;20207;-66
2023/05/19 07:41:24;;;;;;;11.02;3.50;;;;;18.10;96785.00;;;;8235820;28;20217;-66
2023/05/19 07:45:27;;;;;;;6.88;3.67;;;;;18.30;96794.00;;;;8242242;28;20262;-65
2023/05/19 07:49:35;;;;;;;10.75;3.88;;;;;18.60;96802.00;;;;8246038;28;21029;-65
2023/05/19 07:53:43;;;;;;;10.57;3.53;;;;;18.00;96792.00;;;;8243854;28;20206;-66
2023/05/19 07:57:46;;;;;;;7.78;3.17;;;;;18.50;96802.00;;;;8247698;28;20207;-67
2023/05/19 08:01:51;;;;;;;8.00;3.80;;;;;19.20;96785.00;;;;8242236;28;20230;-67
2023/05/19 08:05:55;;;;;;;15.18;6.13;;;;;19.30;96786.00;;;;8250304;28;20319;-68
2023/05/19 08:09:59;;;;;;;6.07;2.95;;;;;18.80;96785.00;;;;8238813;28;20214;-67
2023/05/19 08:14:02;;;;;;;10.73;3.45;;;;;18.20;96790.00;;;;8250546;28;20234;-66
2023/05/19 08:18:06;;;;;;;8.38;3.50;;;;;17.80;96783.00;;;;8242531;28;22579;-66
2023/05/19 08:22:11;;;;;;;5.80;3.47;;;;;18.10;96773.00;;;;8247657;28;20231;-65
2023/05/19 08:26:14;;;;;;;9.25;3.70;;;;;18.60;96780.00;;;;8240861;28;20224;-65
2023/05/19 08:30:19;;;;;;;5.22;3.08;;;;;17.90;96786.00;;;;8236394;28;21030;-64
2023/05/19 08:34:22;;;;;;;9.02;3.20;;;;;17.80;96774.00;;;;8234777;28;20282;-66
2023/05/19 08:38:29;;;;;;;7.80;3.33;;;;;17.90;96783.00;;;;8240298;28;20222;-68
2023/05/19 08:42:33;;;;;;;6.60;3.33;;;;;17.80;96770.00;;;;8247529;28;20230;-66
2023/05/19 08:46:37;;;;;;;7.38;2.85;;;;;17.60;96769.00;;;;8242514;28;20198;-65
2023/05/19 08:50:42;;;;;;;6.97;3.00;;;;;17.70;96757.00;;;;8241357;28;20596;-69
2023/05/19 08:54:54;;;;;;;6.22;2.75;;;;;18.00;96756.00;;;;8239023;28;20215;-64
2023/05/19 08:58:59;;;;;;;5.07;3.03;;;;;18.00;96749.00;;;;8243737;28;20191;-66
2023/05/19 09:03:03;;;;;;;5.70;2.50;;;;;18.30;96747.00;;;;8242189;28;20333;-68
2023/05/19 09:07:21;;;;;;;7.07;2.70;;;;;19.10;96742.00;;;;8235860;28;20199;-66
2023/05/19 09:11:27;;;;;;;7.10;3.00;;;;;19.40;96740.00;;;;8237176;28;20210;-68
2023/05/19 09:15:32;;;;;;;6.22;2.70;;;;;19.20;96752.00;;;;8240696;28;20207;-64
2023/05/19 09:19:36;;;;;;;6.38;3.03;;;;;19.10;96740.00;;;;8242188;28;20243;-68
2023/05/19 09:23:47;;;;;;;4.68;2.55;;;;;19.40;96745.00;;;;8240619;28;20799;-69
2023/05/19 09:27:55;;;;;;;9.00;2.90;;;;;19.50;96736.00;;;;8242978;28;20516;-67
2023/05/19 09:32:03;;;;;;;3.58;2.45;;;;;19.60;96732.00;;;;8241752;28;20225;-70
2023/05/19 09:36:09;;;;;;;6.43;2.67;;;;;19.90;96733.00;;;;8247497;28;20205;-67
2023/05/19 09:40:15;;;;;;;9.23;2.75;;;;;19.50;96739.00;;;;8250937;28;20195;-70
2023/05/19 09:44:27;;;;;;;3.47;2.53;;;;;19.10;96729.00;;;;8241498;28;20230;-70
2023/05/19 09:48:30;;;;;;;4.63;2.63;;;;;19.10;96733.00;;;;8246578;28;20242;-70
2023/05/19 09:52:37;;;;;;;4.90;2.58;;;;;19.10;96721.00;;;;8239339;28;20203;-68
2023/05/19 09:56:40;;;;;;;2.90;2.45;;;;;19.30;96728.00;;;;8239550;28;20203;-68
2023/05/19 10:00:49;;;;;;;3.75;2.42;;;;;19.40;96726.00;;;;8239065;28;20199;-68
2023/05/19 10:04:54;;;;;;;4.05;2.25;;;;;19.70;96710.00;;;;8242175;28;20234;-70
2023/05/19 10:08:59;;;;;;;2.20;2.00;;;;;20.30;96708.00;;;;8246994;28;20650;-69
2023/05/19 10:13:07;;;;;;;3.00;2.10;;;;;21.90;96706.00;;;;8250932;28;20207;-67
2023/05/19 10:17:13;;;;;;;4.72;2.33;;;;;23.50;96709.00;;;;8244129;28;20759;-70
2023/05/19 10:21:19;;;;;;;2.78;2.30;;;;;23.90;96705.00;;;;8239907;28;20199;-69
2023/05/19 10:25:22;;;;;;;8.50;2.30;;;;;23.40;96709.00;;;;8240692;28;20821;-67
2023/05/19 10:29:31;;;;;;;3.92;2.42;;;;;22.80;96710.00;;;;8239865;28;20293;-71
2023/05/19 10:33:47;;;;;;;2.42;2.17;;;;;22.50;96713.00;;;;8240979;28;20601;-70
2023/05/19 10:37:57;;;;;;;3.70;2.42;;;;;21.80;96697.00;;;;8238332;28;20222;-67
2023/05/19 10:42:10;;;;;;;4.70;2.58;;;;;21.00;96688.00;;;;8243699;28;20230;-68
2023/05/19 10:46:14;;;;;;;4.32;2.83;;;;;20.50;96690.00;;;;8244075;28;20231;-68
2023/05/19 10:50:27;;;;;;;4.43;2.35;;;;;20.30;96694.00;;;;8244789;28;20191;-67
2023/05/19 10:54:48;;;;;;;4.72;2.70;;;;;20.60;96691.00;;;;8248627;28;20309;-70
2023/05/19 10:58:56;;;;;;;4.53;2.15;;;;;20.70;96684.00;;;;8242565;28;20299;-70
2023/05/19 11:03:14;;;;;;;3.50;2.30;;;;;20.60;96682.00;;;;8247610;28;20352;-71
2023/05/19 11:07:21;;;;;;;2.88;2.10;;;;;21.10;96693.00;;;;8245317;28;20616;-70
2023/05/19 11:11:27;;;;;;;4.10;1.92;;;;;21.10;96692.00;;;;8240336;28;20199;-70
2023/05/19 11:15:34;;;;;;;3.92;2.50;;;;;21.10;96688.00;;;;8246185;28;20246;-67
2023/05/19 11:19:40;;;;;;;3.03;2.60;;;;;20.80;96695.00;;;;8245322;28;20866;-69
2023/05/19 11:23:46;;;;;;;7.07;2.70;;;;;20.30;96682.00;;;;8239159;28;20247;-69
2023/05/19 11:27:51;;;;;;;3.03;2.22;;;;;20.60;96682.00;;;;8242698;28;20199;-70
2023/05/19 11:31:54;;;;;;;3.28;1.95;;;;;21.60;96673.00;;;;8249439;28;20222;-69
2023/05/19 11:35:59;;;;;;;3.05;2.13;;;;;21.80;96678.00;;;;8251676;28;20230;-67
2023/05/19 11:40:07;;;;;;;2.60;1.92;;;;;21.90;96667.00;;;;8255173;28;20202;-68
2023/05/19 11:44:15;;;;;;;2.33;2.00;;;;;22.00;96672.00;;;;8245334;28;20234;-68
2023/05/19 11:48:21;;;;;;;8.00;2.60;;;;;22.80;96675.00;;;;8247998;28;20727;-69
2023/05/19 11:52:26;;;;;;;2.80;1.90;;;;;22.40;96664.00;;;;8249926;28;20314;-69
2023/05/19 11:56:40;;;;;;;4.90;2.38;;;;;23.00;96657.00;;;;8251030;28;20199;-68
2023/05/19 12:00:44;;;;;;;3.28;2.50;;;;;23.50;96661.00;;;;8249219;28;20286;-68
2023/05/19 12:04:55;;;;;;;3.28;2.22;;;;;23.90;96671.00;;;;8239165;28;20852;-70
2023/05/19 12:08:58;;;;;;;2.47;2.13;;;;;23.60;96665.00;;;;8245988;28;20200;-70
2023/05/19 12:13:03;;;;;;;4.60;2.10;;;;;22.80;96664.00;;;;8240444;28;20759;-69
2023/05/19 12:17:19;;;;;;;4.38;2.75;;;;;22.30;96657.00;;;;8241393;28;20303;-70
2023/05/19 12:21:24;;;;;;;4.28;2.10;;;;;22.00;96669.00;;;;8245752;28;20269;-67
2023/05/19 12:25:37;;;;;;;3.72;2.80;;;;;22.20;96661.00;;;;8250335;28;20632;-68
2023/05/19 12:29:55;;;;;;;2.08;1.80;;;;;22.30;96656.00;;;;8250110;28;20202;-66
2023/05/19 12:34:00;;;;;;;1.77;1.67;;;;;22.40;96647.00;;;;8245894;28;20203;-67
2023/05/19 12:38:04;;;;;;;2.67;1.77;;;;;22.40;96645.00;;;;8245563;28;20213;-70
2023/05/19 12:42:09;;;;;;;2.00;1.80;;;;;22.30;96646.00;;;;8248402;28;20202;-68
2023/05/19 12:46:18;;;;;;;2.42;2.22;;;;;21.90;96648.00;;;;8251103;28;20230;-66
2023/05/19 12:50:21;;;;;;;2.00;1.80;;;;;21.70;96641.00;;;;8249054;28;20203;-64
2023/05/19 12:54:31;;;;;;;2.17;1.98;;;;;22.10;96639.00;;;;8248248;28;20202;-63
2023/05/19 12:58:34;;;;;;;2.90;1.83;;;;;22.10;96639.00;;;;8255202;28;20198;-63
2023/05/19 13:07:08;;;;;;;2.78;2.22;;;;;21.90;96643.00;;;;8471860;27;20578;-66
2023/05/19 13:11:14;;;;;;;3.05;1.60;;;;;21.60;96637.00;;;;8457529;27;20197;-67
2023/05/19 13:15:21;;;;;;;6.18;2.13;;;;;22.00;96639.00;;;;8455271;28;20209;-65
2023/05/19 13:19:31;;;;;;;2.03;1.85;;;;;21.90;96630.00;;;;8445772;28;20708;-66
2023/05/19 13:23:36;;;;;;;3.97;1.92;;;;;22.50;96635.00;;;;8446720;28;20234;-65
2023/05/19 13:27:43;;;;;;;2.85;1.92;;;;;23.40;96624.00;;;;8435950;28;20194;-65
2023/05/19 13:31:46;;;;;;;2.80;1.98;;;;;23.30;96619.00;;;;8434856;28;20869;-66
2023/05/19 13:35:50;;;;;;;19.65;2.78;;;;;22.70;96619.00;;;;8439639;28;20662;-67
2023/05/19 13:39:56;;;;;;;2.33;2.00;;;;;22.50;96620.00;;;;8432587;28;20206;-66
2023/05/19 13:44:01;;;;;;;2.72;2.17;;;;;23.20;96612.00;;;;8433371;28;20220;-66
2023/05/19 13:48:06;;;;;;;2.05;1.85;;;;;24.20;96617.00;;;;8438118;28;20202;-66
2023/05/19 13:52:10;;;;;;;2.30;2.10;;;;;23.90;96615.00;;;;8448439;28;20218;-66
2023/05/19 13:56:21;;;;;;;1.95;1.83;;;;;23.20;96616.00;;;;8445289;28;20222;-68
2023/05/19 14:00:24;;;;;;;10.07;2.22;;;;;22.80;96612.00;;;;8437637;28;20245;-66
2023/05/19 14:04:27;;;;;;;11.07;2.20;;;;;22.70;96610.00;;;;8441549;28;20318;-67
2023/05/19 14:08:31;;;;;;;4.00;2.13;;;;;22.70;96605.00;;;;8442037;28;20832;-67
2023/05/19 14:12:38;;;;;;;5.45;2.15;;;;;23.60;96596.00;;;;8442593;28;20630;-69
2023/05/19 14:17:01;;;;;;;3.28;2.10;;;;;23.00;96598.00;;;;8418593;28;20245;-67
2023/05/19 14:21:07;;;;;;;5.57;1.90;;;;;22.40;96594.00;;;;8421046;28;20199;-65
2023/05/19 14:25:10;;;;;;;2.90;1.85;;;;;21.90;96596.00;;;;8420622;28;21105;-68
2023/05/19 14:29:15;;;;;;;7.85;2.78;;;;;21.70;96596.00;;;;8417033;28;20191;-68
2023/05/19 14:33:19;;;;;;;2.28;1.92;;;;;21.60;96601.00;;;;8420457;28;20203;-65
2023/05/19 14:37:25;;;;;;;5.28;2.00;;;;;21.70;96590.00;;;;8412954;28;20203;-67
2023/05/19 14:41:28;;;;;;;2.25;2.00;;;;;22.00;96591.00;;;;8411536;28;20727;-66
2023/05/19 14:45:36;;;;;;;4.28;2.40;;;;;22.60;96585.00;;;;8407465;28;20315;-67
2023/05/19 14:49:45;;;;;;;3.53;1.90;;;;;22.60;96593.00;;;;8391841;28;20196;-65
2023/05/19 14:53:49;;;;;;;3.88;2.00;;;;;22.80;96579.00;;;;8408444;28;20245;-65
2023/05/19 14:57:52;;;;;;;3.25;2.17;;;;;22.80;96594.00;;;;8410849;28;20231;-68
2023/05/19 15:01:56;;;;;;;2.58;2.17;;;;;22.60;96593.00;;;;8406262;28;20243;-65
2023/05/19 15:06:02;;;;;;;3.13;1.92;;;;;22.50;96585.00;;;;8410246;28;20557;-69
2023/05/19 15:10:09;;;;;;;3.03;2.45;;;;;22.10;96598.00;;;;8418236;28;20239;-71
2023/05/19 15:14:17;;;;;;;4.20;2.08;;;;;22.00;96601.00;;;;8411938;28;20226;-68
2023/05/19 15:18:22;;;;;;;2.30;2.05;;;;;21.90;96602.00;;;;8410752;28;20229;-68
2023/05/19 15:22:25;;;;;;;3.90;2.70;;;;;21.70;96595.00;;;;8414372;28;20565;-63
2023/05/19 15:26:28;;;;;;;7.85;2.38;;;;;21.70;96590.00;;;;8410349;28;20781;-68
2023/05/19 15:30:31;;;;;;;3.72;2.20;;;;;21.60;96585.00;;;;8411851;28;20534;-66
2023/05/19 15:34:36;;;;;;;5.10;2.10;;;;;21.40;96583.00;;;;8416907;28;20235;-65
2023/05/19 15:38:39;;;;;;;6.80;2.13;;;;;21.40;96588.00;;;;8410204;28;20250;-67
2023/05/19 15:42:42;;;;;;;2.25;1.92;;;;;21.60;96587.00;;;;8403699;28;20294;-69
2023/05/19 15:46:45;;;;;;;2.33;1.95;;;;;21.60;96577.00;;;;8409520;28;20231;-66
2023/05/19 15:50:50;;;;;;;2.95;2.00;;;;;21.90;96578.00;;;;8383784;28;20200;-69
2023/05/19 15:54:55;;;;;;;3.90;2.22;;;;;22.00;96580.00;;;;8374630;28;20576;-67
2023/05/19 15:59:02;;;;;;;2.78;2.28;;;;;22.00;96587.00;;;;8406691;28;20735;-67
2023/05/19 16:03:11;;;;;;;3.60;2.55;;;;;21.90;96575.00;;;;8410931;28;20315;-67
2023/05/19 16:07:17;;;;;;;6.43;2.28;;;;;21.60;96578.00;;;;8407597;28;20223;-66
2023/05/19 16:11:22;;;;;;;2.85;2.10;;;;;21.40;96585.00;;;;8407485;28;20206;-64
2023/05/19 16:15:26;;;;;;;4.28;2.15;;;;;21.00;96578.00;;;;8414663;28;20290;-70
2023/05/19 16:19:29;;;;;;;2.40;2.20;;;;;20.70;96569.00;;;;8406946;28;20221;-66
2023/05/19 16:23:34;;;;;;;2.85;2.40;;;;;20.50;96567.00;;;;8411851;28;20199;-65
2023/05/19 16:27:37;;;;;;;2.72;2.10;;;;;20.30;96575.00;;;;8411523;28;20227;-66
2023/05/19 16:31:42;;;;;;;4.50;2.28;;;;;20.20;96579.00;;;;8409134;28;20904;-66
2023/05/19 16:35:47;;;;;;;3.35;2.55;;;;;20.10;96578.00;;;;8414153;28;20562;-67
2023/05/19 16:39:53;;;;;;;3.00;2.53;;;;;20.10;96571.00;;;;8402841;28;20237;-65
2023/05/19 16:43:56;;;;;;;5.28;2.58;;;;;20.10;96570.00;;;;8406104;28;20235;-66
2023/05/19 16:48:02;;;;;;;2.42;2.25;;;;;20.30;96574.00;;;;8406192;28;20227;-67
2023/05/19 16:52:06;;;;;;;4.40;2.53;;;;;20.50;96568.00;;;;8403377;28;20230;-65
2023/05/19 16:56:10;;;;;;;2.65;2.45;;;;;20.70;96569.00;;;;8402593;28;20287;-65
2023/05/19 17:00:15;;;;;;;3.50;2.03;;;;;20.50;96566.00;;;;8409779;28;20593;-65
2023/05/19 17:04:19;;;;;;;2.42;2.22;;;;;20.20;96553.00;;;;8404069;28;20243;-65
2023/05/19 17:08:26;;;;;;;5.03;2.40;;;;;20.10;96550.00;;;;8402482;28;20227;-63
2023/05/19 17:12:31;;;;;;;4.70;2.95;;;;;20.20;96556.00;;;;8400213;28;20219;-72
2023/05/19 17:16:37;;;;;;;6.30;2.63;;;;;20.40;96550.00;;;;8400890;28;20192;-67
2023/05/19 17:20:41;;;;;;;5.68;2.17;;;;;20.50;96557.00;;;;8402604;28;20191;-67
2023/05/19 17:24:44;;;;;;;2.63;2.45;;;;;20.60;96560.00;;;;8407687;28;20287;-67
2023/05/19 17:28:49;;;;;;;2.78;2.50;;;;;20.40;96566.00;;;;8411930;28;20257;-70
2023/05/19 17:32:52;;;;;;;2.67;2.47;;;;;20.30;96562.00;;;;8407134;28;20282;-65
2023/05/19 17:36:56;;;;;;;2.45;2.25;;;;;20.30;96567.00;;;;8409365;28;20199;-65
2023/05/19 17:41:03;;;;;;;3.08;2.78;;;;;20.20;96574.00;;;;8409389;28;20258;-67
2023/05/19 17:45:12;;;;;;;2.90;2.70;;;;;20.20;96574.00;;;;8410681;28;20687;-69
2023/05/19 17:49:15;;;;;;;2.58;2.38;;;;;20.00;96573.00;;;;8409918;28;20601;-70
2023/05/19 17:53:19;;;;;;;2.97;2.60;;;;;19.60;96578.00;;;;8416077;28;20282;-69
2023/05/19 17:57:28;;;;;;;2.80;2.60;;;;;19.10;96571.00;;;;8414181;28;20823;-68
2023/05/19 18:01:37;;;;;;;2.88;2.67;;;;;18.80;96575.00;;;;8413574;28;20819;-67
2023/05/19 18:05:42;;;;;;;2.78;2.50;;;;;18.50;96564.00;;;;8413710;28;20272;-69
2023/05/19 18:09:46;;;;;;;4.68;3.22;;;;;18.30;96566.00;;;;8416995;28;20196;-68
2023/05/19 18:13:49;;;;;;;3.80;2.90;;;;;18.10;96565.00;;;;8413923;28;20241;-68
2023/05/19 18:17:54;;;;;;;2.75;2.55;;;;;17.90;96560.00;;;;8417240;28;20295;-68
2023/05/19 18:21:57;;;;;;;3.25;2.70;;;;;17.70;96563.00;;;;8413082;28;20202;-67
2023/05/19 18:26:05;;;;;;;3.88;2.97;;;;;17.50;96562.00;;;;8413524;28;20719;-65
2023/05/19 18:30:08;;;;;;;5.28;2.80;;;;;17.40;96566.00;;;;8415845;28;20252;-67
2023/05/19 18:34:15;;;;;;;6.32;3.15;;;;;17.30;96563.00;;;;8410642;28;20188;-65
2023/05/19 18:38:18;;;;;;;3.05;2.75;;;;;17.20;96558.00;;;;8413036;28;20279;-69
2023/05/19 18:42:22;;;;;;;3.35;2.90;;;;;17.00;96564.00;;;;8410062;28;20241;-68
2023/05/19 18:46:25;;;;;;;4.50;3.00;;;;;16.90;96561.00;;;;8413123;28;20230;-68
2023/05/19 18:50:31;;;;;;;4.03;3.25;;;;;16.70;96560.00;;;;8415652;28;20210;-67
2023/05/19 18:54:36;;;;;;;3.72;3.30;;;;;16.60;96561.00;;;;8410704;28;20203;-65
2023/05/19 18:58:39;;;;;;;9.13;3.92;;;;;16.50;96564.00;;;;8407901;28;20648;-68
2023/05/19 19:02:42;;;;;;;3.70;2.88;;;;;16.40;96566.00;;;;8413385;28;20247;-68
2023/05/19 19:06:48;;;;;;;5.40;3.47;;;;;16.30;96578.00;;;;8413081;28;20322;-66
2023/05/19 19:10:53;;;;;;;3.65;3.35;;;;;16.20;96572.00;;;;8415851;28;20621;-68
2023/05/19 19:14:58;;;;;;;3.03;2.78;;;;;16.10;96568.00;;;;8414028;28;20290;-70
2023/05/19 19:19:01;;;;;;;3.40;3.08;;;;;16.00;96571.00;;;;8412763;28;20203;-66
2023/05/19 19:23:06;;;;;;;3.70;3.28;;;;;15.90;96579.00;;;;8417453;28;20684;-67
2023/05/19 19:27:16;;;;;;;4.15;3.53;;;;;15.80;96580.00;;;;8413143;28;20272;-70
2023/05/19 19:31:21;;;;;;;4.07;3.58;;;;;15.70;96575.00;;;;8414532;28;20669;-67
2023/05/19 19:35:25;;;;;;;5.53;3.60;;;;;15.70;96576.00;;;;8413090;28;20780;-68
2023/05/19 19:39:32;;;;;;;3.75;3.45;;;;;15.60;96574.00;;;;8412795;28;20288;-67
2023/05/19 19:43:35;;;;;;;3.30;3.00;;;;;15.60;96589.00;;;;8411544;28;20350;-67
2023/05/19 19:47:41;;;;;;;5.47;3.33;;;;;15.60;96589.00;;;;8413571;28;20223;-66
2023/05/19 19:51:44;;;;;;;5.60;3.53;;;;;15.50;96585.00;;;;8411391;28;20202;-68
2023/05/19 19:56:23;;;;;;;3.90;3.40;;;;;15.40;96583.00;;;;8412438;28;20203;-65
2023/05/19 20:00:38;;;;;;;4.47;3.50;;;;;15.40;96583.00;;;;8408051;28;20246;-67
2023/05/19 20:04:41;;;;;;;4.53;4.13;;;;;15.30;96580.00;;;;8401568;28;20241;-68
2023/05/19 20:08:48;;;;;;;6.47;3.78;;;;;15.30;96578.00;;;;8407660;28;20662;-67
2023/05/19 20:12:53;;;;;;;5.15;3.63;;;;;15.30;96578.00;;;;8406822;28;20215;-68
2023/05/19 20:16:56;;;;;;;4.60;3.78;;;;;15.30;96583.00;;;;8412716;28;20633;-69
2023/05/19 20:20:59;;;;;;;4.57;3.85;;;;;15.30;96586.00;;;;8413962;28;20223;-67
2023/05/19 20:25:03;;;;;;;5.32;3.88;;;;;15.40;96578.00;;;;8411090;28;20298;-69
2023/05/19 20:29:10;;;;;;;4.05;3.53;;;;;15.40;96577.00;;;;8406030;28;20317;-71
2023/05/19 20:33:13;;;;;;;3.95;3.63;;;;;15.50;96579.00;;;;8411999;28;20279;-69